MP3/FLAC

‹ prev 2018-03-05 next › 347 release(s) · 46,75 GB · filter: day
Release Group Size Files Date ↓
Acid_Pauli--Es_War_Einmal_Indianerland_(Original_Motion_Picture_Soundtrack)-(OUIE005)-WEB-2017-dh dh 181,07 MB 30 2018-03-05
And_Then_Came_Fall-And_Then_Came_Fall-WEB-2018-AZF AZF 100,28 MB 16 2018-03-05
AR-AB-Protocol_Vol_4-WEB-2018-ENRAGED ENRAGED 103,52 MB 16 2018-03-05
Maseratti_Ran-Factz_4_and_a_Baby-WEB-2016-ENRAGED ENRAGED 84,86 MB 13 2018-03-05
Tom_Helsen-Cupcakes-WEB-2018-AZF AZF 76,69 MB 14 2018-03-05
Maseratti_Ran-Factz_4_the_Leak-WEB-2015-ENRAGED ENRAGED 142,69 MB 19 2018-03-05
Maseratti_Ran-Factz_Vol_5-WEB-2017-ENRAGED ENRAGED 128,11 MB 19 2018-03-05
Karen_Damen-Een_ander_spoor-WEB-NL-2018-AZF AZF 83,31 MB 14 2018-03-05
Def_Dee-Deja_Vu-WEB-2014-ENRAGED ENRAGED 93,41 MB 19 2018-03-05
Def_Dee-D-1000-READ_NFO-WEB-2015-ENRAGED ENRAGED 92,84 MB 23 2018-03-05
Customs-Magik-WEB-2018-AZF AZF 87,31 MB 14 2018-03-05
JtotheC-Somebody_Had_To_Make_This_Record-WEB-2018-AZF AZF 118,92 MB 16 2018-03-05
Chris_Fear_and_Lisa_Abbott_-_Play_With_Fire_(Jay_Swtch_and_Mansy_Remix)-(SD132)-WEB-2018-ZzZz ZzZz 13,26 MB 4 2018-03-05
Dj_ESudd-Still_Servin-EP-WEB-2018-ENRAGED ENRAGED 47,53 MB 9 2018-03-05
Mi5ta-Bossalinie-WEB-2018-ENRAGED ENRAGED 118,88 MB 18 2018-03-05
Slicc_Da_Kidd-LOAF_(Life_of_a_Finesser)-WEB-2018-ENRAGED ENRAGED 81,26 MB 15 2018-03-05
Fender_Bender_-_Law_Of_The_Jungle-(NBM026)-WEB-2018-ZzZz ZzZz 16,36 MB 4 2018-03-05
Sy_Smith-Sometimes_a_Rose_Will_Grow_in_Concrete-WEB-2018-ENRAGED ENRAGED 95,21 MB 16 2018-03-05
Slava_-_Night_at_The_Arcade-(MB0065)-WEB-2018-ZzZz ZzZz 38,74 MB 6 2018-03-05
TGRS_-_Esther-(SSCD1671)-WEB-2018-ZzZz ZzZz 7,38 MB 4 2018-03-05
Hollow_Tip_-_Takin_No_Shortz-WEB-2007-KNOWN_iNT KNOWN_iNT 83,82 MB 13 2018-03-05
M_People-Bizarre_Fruit_II-2CD-FLAC-1995-D2H D2H 867,40 MB 25 2018-03-05
Dougie_F-In_Your_Feelings-WEB-2018-ENRAGED ENRAGED 77,65 MB 14 2018-03-05
Polyester_the_Saint-American_Muscle_50-WEB-2018-ENRAGED ENRAGED 109,65 MB 18 2018-03-05
Pouya-FIVE_FIVE-WEB-2018-ENRAGED ENRAGED 73,89 MB 15 2018-03-05
VA-Music_For_The_Road-CD-FLAC-2007-D2H D2H 908,03 MB 36 2018-03-05
Sodom-Get_What_You_Deserve-WEB-2018-ENTiTLED_iNT ENTiTLED_iNT 101,28 MB 19 2018-03-05
Barcelona_Gipsy_balKan_Orchestra-Avo_Kanto-WEB-2018-ENTiTLED ENTiTLED 123,03 MB 14 2018-03-05
Tiamat-The_Church_Of_Tiamat_(Live_in_Krakow_2005)-WEB-2018-ENTiTLED ENTiTLED 175,00 MB 19 2018-03-05
Ahzee-Addict__Extended_Mixes-WEB-2018-DJ DJ 145,95 MB 21 2018-03-05
Dr_Octagon_(Kool_Keith)-Area_54-SINGLE-WEB-2018-ENRAGED ENRAGED 9,32 MB 5 2018-03-05
N-PROG_-_Wake_Up_EP-(CAT189967)-WEB-2018-ZzZz ZzZz 33,71 MB 5 2018-03-05
Al_G_-_Tempa-(DD128)-WEB-2018-ZzZz ZzZz 15,23 MB 5 2018-03-05
San_Lopez_-_Alhambra-(DR124)-WEB-2018-ZzZz ZzZz 20,02 MB 4 2018-03-05
Nbies-Ocean-WEB-2018-POW POW 9,07 MB 4 2018-03-05
Oppia_-_Hold-(GRVV0207)-WEB-2018-ZzZz ZzZz 14,32 MB 4 2018-03-05
Uncle_Lucius-The_Light-CD-FLAC-2015-6DM 6DM 301,55 MB 15 2018-03-05
VA_-_Subculture__Mixed_By_John_O_Callaghan_And_Cold_Blue-2CD-2018-QMI QMI 206,74 MB 7 2018-03-05
County_Liners-Mary_Jane_Dunphe_and_Chris_McDonnell_in_the_County_Liners-WEB-2017-ENTiTLED ENTiTLED 43,28 MB 8 2018-03-05
Kuenring-Kuenring-WEB-2017-ENTiTLED ENTiTLED 116,28 MB 12 2018-03-05
The_Cryptkeeper_Five-The_Stronghold-WEB-2017-ENTiTLED ENTiTLED 75,63 MB 14 2018-03-05
The_Kahless_Clone-Our_Never-Ending_Loneliness-WEB-2017-ENTiTLED ENTiTLED 55,67 MB 9 2018-03-05
Mayron_-_Other_Life_(Emotional_Mix)-(R1805)-WEB-2018-ZzZz ZzZz 24,06 MB 5 2018-03-05
Napom-Lips-WEB-2018-ENSLAVE ENSLAVE 58,83 MB 13 2018-03-05
VA_-_Trance_Music_Vol_17-(SLR323)-WEB-2018-ZzZz ZzZz 162,52 MB 14 2018-03-05
Rinaly_-_Observatory-(AVAW057)-WEB-2018-MMS MMS 13,00 MB 4 2018-03-05
Solomon08_-_Billions_Of_Years_Ago-(TRNCA268)-WEB-2018-ZzZz ZzZz 36,98 MB 6 2018-03-05
Jesper_Binzer-Dying_Is_Easy_(Deluxe)-BONUS_TRACKS-WEB-2017-ENTiTLED ENTiTLED 118,12 MB 16 2018-03-05
Alex_Numark_-_Night_of_Trance-(AT241)-WEB-2018-ZzZz ZzZz 49,80 MB 7 2018-03-05
Benji_and_Fede-Siamo_solo_noise_(Deluxe)-BONUS_TRACKS-WEB-IT-2018-ENTiTLED ENTiTLED 111,11 MB 18 2018-03-05